sensor_id;sensor_type;location;lat;lon;timestamp;P1;durP1;ratioP1;P2;durP2;ratioP2
18576;SDS011;9418;52.694;13.294;2023-02-19T00:01:12;2.10;;;1.90;;
18576;SDS011;9418;52.694;13.294;2023-02-19T00:03:40;3.80;;;1.83;;
18576;SDS011;9418;52.694;13.294;2023-02-19T00:06:08;3.13;;;1.87;;
18576;SDS011;9418;52.694;13.294;2023-02-19T00:08:36;2.00;;;1.90;;
18576;SDS011;9418;52.694;13.294;2023-02-19T00:11:05;2.10;;;1.90;;
18576;SDS011;9418;52.694;13.294;2023-02-19T00:13:34;2.10;;;2.00;;
18576;SDS011;9418;52.694;13.294;2023-02-19T00:16:05;4.60;;;2.57;;
18576;SDS011;9418;52.694;13.294;2023-02-19T00:18:32;2.80;;;2.23;;
18576;SDS011;9418;52.694;13.294;2023-02-19T00:20:59;2.23;;;2.13;;
18576;SDS011;9418;52.694;13.294;2023-02-19T00:23:26;1.73;;;1.63;;
18576;SDS011;9418;52.694;13.294;2023-02-19T00:25:53;2.70;;;2.17;;
18576;SDS011;9418;52.694;13.294;2023-02-19T00:28:20;1.73;;;1.70;;
18576;SDS011;9418;52.694;13.294;2023-02-19T00:30:46;2.23;;;2.10;;
18576;SDS011;9418;52.694;13.294;2023-02-19T00:33:14;2.23;;;2.10;;
18576;SDS011;9418;52.694;13.294;2023-02-19T00:35:41;3.40;;;3.10;;
18576;SDS011;9418;52.694;13.294;2023-02-19T00:38:07;3.40;;;3.10;;
18576;SDS011;9418;52.694;13.294;2023-02-19T00:40:34;2.80;;;2.57;;
18576;SDS011;9418;52.694;13.294;2023-02-19T00:43:01;2.53;;;2.37;;
18576;SDS011;9418;52.694;13.294;2023-02-19T00:45:27;3.90;;;2.13;;
18576;SDS011;9418;52.694;13.294;2023-02-19T00:47:54;2.10;;;2.00;;
18576;SDS011;9418;52.694;13.294;2023-02-19T00:50:22;2.23;;;2.03;;
18576;SDS011;9418;52.694;13.294;2023-02-19T00:52:48;3.47;;;2.10;;
18576;SDS011;9418;52.694;13.294;2023-02-19T00:55:15;2.03;;;1.93;;
18576;SDS011;9418;52.694;13.294;2023-02-19T00:57:42;3.27;;;2.50;;
18576;SDS011;9418;52.694;13.294;2023-02-19T01:00:09;3.27;;;2.87;;
18576;SDS011;9418;52.694;13.294;2023-02-19T01:02:36;4.17;;;3.60;;
18576;SDS011;9418;52.694;13.294;2023-02-19T01:05:03;3.87;;;3.47;;
18576;SDS011;9418;52.694;13.294;2023-02-19T01:07:31;2.93;;;2.73;;
18576;SDS011;9418;52.694;13.294;2023-02-19T01:10:00;3.00;;;2.80;;
18576;SDS011;9418;52.694;13.294;2023-02-19T01:12:27;2.70;;;2.60;;
18576;SDS011;9418;52.694;13.294;2023-02-19T01:14:53;3.60;;;2.90;;
18576;SDS011;9418;52.694;13.294;2023-02-19T01:17:20;3.30;;;3.10;;
18576;SDS011;9418;52.694;13.294;2023-02-19T01:19:46;3.03;;;2.80;;
18576;SDS011;9418;52.694;13.294;2023-02-19T01:22:13;2.60;;;2.50;;
18576;SDS011;9418;52.694;13.294;2023-02-19T01:24:41;3.73;;;3.53;;
18576;SDS011;9418;52.694;13.294;2023-02-19T01:27:08;10.77;;;3.23;;
18576;SDS011;9418;52.694;13.294;2023-02-19T01:29:34;3.60;;;3.30;;
18576;SDS011;9418;52.694;13.294;2023-02-19T01:32:01;3.10;;;2.80;;
18576;SDS011;9418;52.694;13.294;2023-02-19T01:34:28;3.50;;;3.30;;
18576;SDS011;9418;52.694;13.294;2023-02-19T01:36:57;2.70;;;2.50;;
18576;SDS011;9418;52.694;13.294;2023-02-19T01:39:24;2.43;;;2.33;;
18576;SDS011;9418;52.694;13.294;2023-02-19T01:41:51;3.70;;;2.80;;
18576;SDS011;9418;52.694;13.294;2023-02-19T01:47:22;3.00;;;2.80;;
18576;SDS011;9418;52.694;13.294;2023-02-19T01:49:50;3.60;;;3.30;;
18576;SDS011;9418;52.694;13.294;2023-02-19T01:52:20;3.77;;;2.97;;
18576;SDS011;9418;52.694;13.294;2023-02-19T01:54:49;6.20;;;3.03;;
18576;SDS011;9418;52.694;13.294;2023-02-19T01:57:19;4.00;;;3.60;;
18576;SDS011;9418;52.694;13.294;2023-02-19T01:59:50;4.23;;;3.40;;
18576;SDS011;9418;52.694;13.294;2023-02-19T02:02:20;3.33;;;3.03;;
18576;SDS011;9418;52.694;13.294;2023-02-19T02:04:49;3.47;;;3.17;;
18576;SDS011;9418;52.694;13.294;2023-02-19T02:07:16;4.63;;;2.87;;
18576;SDS011;9418;52.694;13.294;2023-02-19T02:10:01;3.40;;;3.10;;
18576;SDS011;9418;52.694;13.294;2023-02-19T02:12:55;5.43;;;3.40;;
18576;SDS011;9418;52.694;13.294;2023-02-19T02:15:23;2.70;;;2.60;;
18576;SDS011;9418;52.694;13.294;2023-02-19T02:17:55;5.13;;;3.00;;
18576;SDS011;9418;52.694;13.294;2023-02-19T02:20:31;5.57;;;3.00;;
18576;SDS011;9418;52.694;13.294;2023-02-19T02:23:02;4.20;;;3.20;;
18576;SDS011;9418;52.694;13.294;2023-02-19T02:25:46;4.43;;;2.97;;
18576;SDS011;9418;52.694;13.294;2023-02-19T02:28:31;4.07;;;3.67;;
18576;SDS011;9418;52.694;13.294;2023-02-19T02:31:22;5.17;;;3.57;;
18576;SDS011;9418;52.694;13.294;2023-02-19T02:33:53;7.53;;;5.10;;
18576;SDS011;9418;52.694;13.294;2023-02-19T02:36:26;7.20;;;4.50;;
18576;SDS011;9418;52.694;13.294;2023-02-19T02:38:56;7.40;;;4.83;;
18576;SDS011;9418;52.694;13.294;2023-02-19T02:41:24;5.07;;;4.67;;
18576;SDS011;9418;52.694;13.294;2023-02-19T02:43:51;8.60;;;5.60;;
18576;SDS011;9418;52.694;13.294;2023-02-19T02:46:18;7.40;;;5.40;;
18576;SDS011;9418;52.694;13.294;2023-02-19T02:48:49;5.07;;;4.57;;
18576;SDS011;9418;52.694;13.294;2023-02-19T02:51:22;7.80;;;5.10;;
18576;SDS011;9418;52.694;13.294;2023-02-19T02:53:52;8.93;;;4.60;;
18576;SDS011;9418;52.694;13.294;2023-02-19T02:56:39;7.83;;;4.37;;
18576;SDS011;9418;52.694;13.294;2023-02-19T02:59:08;4.90;;;4.40;;
18576;SDS011;9418;52.694;13.294;2023-02-19T03:01:37;4.93;;;4.33;;
18576;SDS011;9418;52.694;13.294;2023-02-19T03:04:28;4.03;;;3.60;;
18576;SDS011;9418;52.694;13.294;2023-02-19T03:06:59;6.33;;;4.30;;
18576;SDS011;9418;52.694;13.294;2023-02-19T03:09:34;4.80;;;4.40;;
18576;SDS011;9418;52.694;13.294;2023-02-19T03:12:06;7.63;;;4.33;;
18576;SDS011;9418;52.694;13.294;2023-02-19T03:14:54;10.47;;;4.50;;
18576;SDS011;9418;52.694;13.294;2023-02-19T03:17:45;4.00;;;3.60;;
18576;SDS011;9418;52.694;13.294;2023-02-19T03:20:35;5.30;;;4.70;;
18576;SDS011;9418;52.694;13.294;2023-02-19T03:23:09;4.20;;;3.90;;
18576;SDS011;9418;52.694;13.294;2023-02-19T03:25:38;9.10;;;4.00;;
18576;SDS011;9418;52.694;13.294;2023-02-19T03:28:25;4.40;;;4.00;;
18576;SDS011;9418;52.694;13.294;2023-02-19T03:31:07;4.87;;;4.43;;
18576;SDS011;9418;52.694;13.294;2023-02-19T03:33:36;4.37;;;3.97;;
18576;SDS011;9418;52.694;13.294;2023-02-19T03:36:09;5.00;;;4.03;;
18576;SDS011;9418;52.694;13.294;2023-02-19T03:38:41;5.00;;;3.50;;
18576;SDS011;9418;52.694;13.294;2023-02-19T03:41:18;4.67;;;3.40;;
18576;SDS011;9418;52.694;13.294;2023-02-19T03:43:51;6.07;;;4.13;;
18576;SDS011;9418;52.694;13.294;2023-02-19T03:46:24;8.57;;;3.20;;
18576;SDS011;9418;52.694;13.294;2023-02-19T03:49:00;4.43;;;2.93;;
18576;SDS011;9418;52.694;13.294;2023-02-19T03:51:33;4.50;;;2.87;;
18576;SDS011;9418;52.694;13.294;2023-02-19T03:54:07;3.80;;;3.50;;
18576;SDS011;9418;52.694;13.294;2023-02-19T03:56:41;6.00;;;3.60;;
18576;SDS011;9418;52.694;13.294;2023-02-19T03:59:11;4.60;;;2.63;;
18576;SDS011;9418;52.694;13.294;2023-02-19T04:01:43;3.43;;;3.03;;
18576;SDS011;9418;52.694;13.294;2023-02-19T04:04:15;6.30;;;2.80;;
18576;SDS011;9418;52.694;13.294;2023-02-19T04:06:48;3.37;;;3.07;;
18576;SDS011;9418;52.694;13.294;2023-02-19T04:09:19;5.20;;;2.90;;
18576;SDS011;9418;52.694;13.294;2023-02-19T04:11:49;3.77;;;3.00;;
18576;SDS011;9418;52.694;13.294;2023-02-19T04:14:17;3.33;;;3.03;;
18576;SDS011;9418;52.694;13.294;2023-02-19T04:16:48;6.17;;;2.87;;
18576;SDS011;9418;52.694;13.294;2023-02-19T04:19:20;5.30;;;2.50;;
18576;SDS011;9418;52.694;13.294;2023-02-19T04:21:51;4.10;;;2.60;;
18576;SDS011;9418;52.694;13.294;2023-02-19T04:24:20;3.43;;;3.03;;
18576;SDS011;9418;52.694;13.294;2023-02-19T04:26:51;4.80;;;2.83;;
18576;SDS011;9418;52.694;13.294;2023-02-19T04:29:18;4.60;;;2.80;;
18576;SDS011;9418;52.694;13.294;2023-02-19T04:31:45;6.80;;;3.33;;
18576;SDS011;9418;52.694;13.294;2023-02-19T04:34:12;2.80;;;2.70;;
18576;SDS011;9418;52.694;13.294;2023-02-19T04:36:39;4.93;;;3.37;;
18576;SDS011;9418;52.694;13.294;2023-02-19T04:39:07;3.00;;;2.80;;
18576;SDS011;9418;52.694;13.294;2023-02-19T04:41:34;10.43;;;2.93;;
18576;SDS011;9418;52.694;13.294;2023-02-19T04:44:00;4.50;;;2.67;;
18576;SDS011;9418;52.694;13.294;2023-02-19T04:46:27;2.67;;;2.07;;
18576;SDS011;9418;52.694;13.294;2023-02-19T04:48:54;4.30;;;2.33;;
18576;SDS011;9418;52.694;13.294;2023-02-19T04:51:20;3.77;;;2.17;;
18576;SDS011;9418;52.694;13.294;2023-02-19T04:53:47;2.90;;;2.63;;
18576;SDS011;9418;52.694;13.294;2023-02-19T04:56:15;8.23;;;3.40;;
18576;SDS011;9418;52.694;13.294;2023-02-19T04:58:42;6.53;;;3.10;;
18576;SDS011;9418;52.694;13.294;2023-02-19T05:01:10;2.37;;;2.20;;
18576;SDS011;9418;52.694;13.294;2023-02-19T05:03:36;3.90;;;2.57;;
18576;SDS011;9418;52.694;13.294;2023-02-19T05:06:03;4.17;;;3.03;;
18576;SDS011;9418;52.694;13.294;2023-02-19T05:08:31;7.83;;;2.93;;
18576;SDS011;9418;52.694;13.294;2023-02-19T05:10:58;5.53;;;3.10;;
18576;SDS011;9418;52.694;13.294;2023-02-19T05:13:27;8.80;;;3.27;;
18576;SDS011;9418;52.694;13.294;2023-02-19T05:15:55;3.50;;;2.90;;
18576;SDS011;9418;52.694;13.294;2023-02-19T05:18:22;2.73;;;2.53;;
18576;SDS011;9418;52.694;13.294;2023-02-19T05:20:49;4.40;;;2.97;;
18576;SDS011;9418;52.694;13.294;2023-02-19T05:23:16;2.50;;;2.30;;
18576;SDS011;9418;52.694;13.294;2023-02-19T05:25:43;2.10;;;1.90;;
18576;SDS011;9418;52.694;13.294;2023-02-19T05:28:10;8.93;;;2.93;;
18576;SDS011;9418;52.694;13.294;2023-02-19T05:30:44;2.60;;;1.90;;
18576;SDS011;9418;52.694;13.294;2023-02-19T05:33:12;3.83;;;2.27;;
18576;SDS011;9418;52.694;13.294;2023-02-19T05:35:40;4.10;;;2.23;;
18576;SDS011;9418;52.694;13.294;2023-02-19T05:38:07;8.50;;;2.97;;
18576;SDS011;9418;52.694;13.294;2023-02-19T05:40:34;2.77;;;2.07;;
18576;SDS011;9418;52.694;13.294;2023-02-19T05:43:02;4.90;;;2.50;;
18576;SDS011;9418;52.694;13.294;2023-02-19T05:45:28;2.40;;;2.20;;
18576;SDS011;9418;52.694;13.294;2023-02-19T05:47:56;3.80;;;2.47;;
18576;SDS011;9418;52.694;13.294;2023-02-19T05:50:23;3.10;;;2.73;;
18576;SDS011;9418;52.694;13.294;2023-02-19T05:52:50;6.63;;;3.00;;
18576;SDS011;9418;52.694;13.294;2023-02-19T05:55:17;4.17;;;2.47;;
18576;SDS011;9418;52.694;13.294;2023-02-19T05:57:44;7.97;;;3.27;;
18576;SDS011;9418;52.694;13.294;2023-02-19T06:00:12;9.40;;;2.77;;
18576;SDS011;9418;52.694;13.294;2023-02-19T06:02:40;4.70;;;2.30;;
18576;SDS011;9418;52.694;13.294;2023-02-19T06:05:09;3.57;;;2.30;;
18576;SDS011;9418;52.694;13.294;2023-02-19T06:07:36;4.20;;;2.70;;
18576;SDS011;9418;52.694;13.294;2023-02-19T06:10:03;4.07;;;2.57;;
18576;SDS011;9418;52.694;13.294;2023-02-19T06:12:31;3.10;;;2.27;;
18576;SDS011;9418;52.694;13.294;2023-02-19T06:14:57;2.50;;;2.10;;
18576;SDS011;9418;52.694;13.294;2023-02-19T06:17:24;2.83;;;2.13;;
18576;SDS011;9418;52.694;13.294;2023-02-19T06:19:50;2.10;;;2.00;;
18576;SDS011;9418;52.694;13.294;2023-02-19T06:22:18;4.03;;;2.27;;
18576;SDS011;9418;52.694;13.294;2023-02-19T06:24:45;2.50;;;2.20;;
18576;SDS011;9418;52.694;13.294;2023-02-19T06:27:12;5.40;;;2.80;;
18576;SDS011;9418;52.694;13.294;2023-02-19T06:29:39;5.37;;;3.20;;
18576;SDS011;9418;52.694;13.294;2023-02-19T06:32:05;3.20;;;2.80;;
18576;SDS011;9418;52.694;13.294;2023-02-19T06:34:32;6.20;;;3.60;;
18576;SDS011;9418;52.694;13.294;2023-02-19T06:37:00;3.83;;;3.27;;
18576;SDS011;9418;52.694;13.294;2023-02-19T06:39:28;5.50;;;4.03;;
18576;SDS011;9418;52.694;13.294;2023-02-19T06:41:55;3.53;;;2.87;;
18576;SDS011;9418;52.694;13.294;2023-02-19T06:44:21;3.57;;;2.63;;
18576;SDS011;9418;52.694;13.294;2023-02-19T06:46:50;7.13;;;2.80;;
18576;SDS011;9418;52.694;13.294;2023-02-19T06:49:20;3.73;;;2.27;;
18576;SDS011;9418;52.694;13.294;2023-02-19T06:51:47;3.67;;;2.87;;
18576;SDS011;9418;52.694;13.294;2023-02-19T06:54:13;4.93;;;2.77;;
18576;SDS011;9418;52.694;13.294;2023-02-19T06:56:42;3.00;;;2.80;;
18576;SDS011;9418;52.694;13.294;2023-02-19T06:59:10;5.20;;;3.90;;
18576;SDS011;9418;52.694;13.294;2023-02-19T07:01:38;6.90;;;3.40;;
18576;SDS011;9418;52.694;13.294;2023-02-19T07:04:06;5.17;;;3.80;;
18576;SDS011;9418;52.694;13.294;2023-02-19T07:06:33;7.40;;;3.57;;
18576;SDS011;9418;52.694;13.294;2023-02-19T07:09:00;6.70;;;4.50;;
18576;SDS011;9418;52.694;13.294;2023-02-19T07:11:29;7.40;;;4.67;;
18576;SDS011;9418;52.694;13.294;2023-02-19T07:13:59;9.90;;;6.93;;
18576;SDS011;9418;52.694;13.294;2023-02-19T07:16:26;10.23;;;5.17;;
18576;SDS011;9418;52.694;13.294;2023-02-19T07:18:54;7.17;;;5.70;;
18576;SDS011;9418;52.694;13.294;2023-02-19T07:21:21;5.37;;;4.30;;
18576;SDS011;9418;52.694;13.294;2023-02-19T07:23:48;5.27;;;3.93;;
18576;SDS011;9418;52.694;13.294;2023-02-19T07:26:16;4.20;;;3.70;;
18576;SDS011;9418;52.694;13.294;2023-02-19T07:28:44;9.03;;;4.30;;
18576;SDS011;9418;52.694;13.294;2023-02-19T07:31:13;7.07;;;3.40;;
18576;SDS011;9418;52.694;13.294;2023-02-19T07:33:41;8.00;;;4.20;;
18576;SDS011;9418;52.694;13.294;2023-02-19T07:36:08;3.67;;;3.37;;
18576;SDS011;9418;52.694;13.294;2023-02-19T07:38:35;5.10;;;3.17;;
18576;SDS011;9418;52.694;13.294;2023-02-19T07:41:03;7.07;;;3.57;;
18576;SDS011;9418;52.694;13.294;2023-02-19T07:43:31;7.40;;;3.47;;
18576;SDS011;9418;52.694;13.294;2023-02-19T07:46:01;7.57;;;3.50;;
18576;SDS011;9418;52.694;13.294;2023-02-19T07:48:29;7.90;;;3.13;;
18576;SDS011;9418;52.694;13.294;2023-02-19T07:50:56;7.57;;;2.67;;
18576;SDS011;9418;52.694;13.294;2023-02-19T07:53:24;6.43;;;3.13;;
18576;SDS011;9418;52.694;13.294;2023-02-19T07:55:52;4.77;;;2.53;;
18576;SDS011;9418;52.694;13.294;2023-02-19T07:58:19;5.90;;;3.00;;
18576;SDS011;9418;52.694;13.294;2023-02-19T08:00:46;3.50;;;2.50;;
18576;SDS011;9418;52.694;13.294;2023-02-19T08:03:12;6.10;;;2.90;;
18576;SDS011;9418;52.694;13.294;2023-02-19T08:05:40;5.10;;;2.73;;
18576;SDS011;9418;52.694;13.294;2023-02-19T08:08:08;2.50;;;2.30;;
18576;SDS011;9418;52.694;13.294;2023-02-19T08:10:36;5.80;;;2.40;;
18576;SDS011;9418;52.694;13.294;2023-02-19T08:13:20;3.47;;;2.20;;
18576;SDS011;9418;52.694;13.294;2023-02-19T08:15:51;4.90;;;2.30;;
18576;SDS011;9418;52.694;13.294;2023-02-19T08:18:19;5.07;;;2.27;;
18576;SDS011;9418;52.694;13.294;2023-02-19T08:20:48;3.43;;;2.20;;
18576;SDS011;9418;52.694;13.294;2023-02-19T08:23:15;3.93;;;2.10;;
18576;SDS011;9418;52.694;13.294;2023-02-19T08:25:44;5.37;;;2.40;;
18576;SDS011;9418;52.694;13.294;2023-02-19T08:28:11;5.03;;;2.10;;
18576;SDS011;9418;52.694;13.294;2023-02-19T08:30:39;4.30;;;2.40;;
18576;SDS011;9418;52.694;13.294;2023-02-19T08:33:09;4.13;;;2.17;;
18576;SDS011;9418;52.694;13.294;2023-02-19T08:35:36;20.73;;;2.70;;
18576;SDS011;9418;52.694;13.294;2023-02-19T08:38:05;7.43;;;2.50;;
18576;SDS011;9418;52.694;13.294;2023-02-19T08:40:32;5.30;;;2.13;;
18576;SDS011;9418;52.694;13.294;2023-02-19T08:43:00;3.40;;;1.70;;
18576;SDS011;9418;52.694;13.294;2023-02-19T08:45:28;4.53;;;2.43;;
18576;SDS011;9418;52.694;13.294;2023-02-19T08:47:54;3.23;;;2.67;;
18576;SDS011;9418;52.694;13.294;2023-02-19T08:50:21;4.50;;;2.17;;
18576;SDS011;9418;52.694;13.294;2023-02-19T08:52:48;6.57;;;2.10;;
18576;SDS011;9418;52.694;13.294;2023-02-19T08:55:16;2.90;;;1.53;;
18576;SDS011;9418;52.694;13.294;2023-02-19T08:57:42;5.13;;;2.23;;
18576;SDS011;9418;52.694;13.294;2023-02-19T09:00:10;5.13;;;1.90;;
18576;SDS011;9418;52.694;13.294;2023-02-19T09:02:38;6.80;;;2.00;;
18576;SDS011;9418;52.694;13.294;2023-02-19T09:05:04;8.47;;;1.93;;
18576;SDS011;9418;52.694;13.294;2023-02-19T09:07:31;10.20;;;2.53;;
18576;SDS011;9418;52.694;13.294;2023-02-19T09:09:59;7.50;;;2.00;;
18576;SDS011;9418;52.694;13.294;2023-02-19T09:12:27;14.90;;;2.33;;
18576;SDS011;9418;52.694;13.294;2023-02-19T09:14:53;6.93;;;2.50;;
18576;SDS011;9418;52.694;13.294;2023-02-19T09:17:20;3.43;;;1.60;;
18576;SDS011;9418;52.694;13.294;2023-02-19T09:19:47;5.10;;;2.20;;
18576;SDS011;9418;52.694;13.294;2023-02-19T09:22:13;5.40;;;2.40;;
18576;SDS011;9418;52.694;13.294;2023-02-19T09:24:41;11.67;;;2.90;;
18576;SDS011;9418;52.694;13.294;2023-02-19T09:27:08;12.27;;;2.60;;
18576;SDS011;9418;52.694;13.294;2023-02-19T09:29:40;7.73;;;2.43;;
18576;SDS011;9418;52.694;13.294;2023-02-19T09:32:07;5.23;;;2.40;;
18576;SDS011;9418;52.694;13.294;2023-02-19T09:34:34;16.77;;;3.47;;
18576;SDS011;9418;52.694;13.294;2023-02-19T09:37:00;9.87;;;3.50;;
18576;SDS011;9418;52.694;13.294;2023-02-19T09:39:27;5.50;;;2.70;;
18576;SDS011;9418;52.694;13.294;2023-02-19T09:41:54;6.30;;;2.10;;
18576;SDS011;9418;52.694;13.294;2023-02-19T09:44:24;7.17;;;2.17;;
18576;SDS011;9418;52.694;13.294;2023-02-19T09:46:55;5.20;;;2.17;;
18576;SDS011;9418;52.694;13.294;2023-02-19T09:49:25;6.13;;;2.80;;
18576;SDS011;9418;52.694;13.294;2023-02-19T09:51:55;7.80;;;2.50;;
18576;SDS011;9418;52.694;13.294;2023-02-19T09:54:25;8.13;;;2.40;;
18576;SDS011;9418;52.694;13.294;2023-02-19T09:56:54;6.43;;;2.33;;
18576;SDS011;9418;52.694;13.294;2023-02-19T09:59:23;7.07;;;2.37;;
18576;SDS011;9418;52.694;13.294;2023-02-19T10:01:53;2.70;;;1.47;;
18576;SDS011;9418;52.694;13.294;2023-02-19T10:04:24;11.03;;;2.10;;
18576;SDS011;9418;52.694;13.294;2023-02-19T10:06:50;13.77;;;2.90;;
18576;SDS011;9418;52.694;13.294;2023-02-19T10:09:23;6.60;;;2.00;;
18576;SDS011;9418;52.694;13.294;2023-02-19T10:11:53;6.80;;;2.33;;
18576;SDS011;9418;52.694;13.294;2023-02-19T10:14:21;4.30;;;1.80;;
18576;SDS011;9418;52.694;13.294;2023-02-19T10:16:53;7.90;;;2.10;;
18576;SDS011;9418;52.694;13.294;2023-02-19T10:19:24;8.23;;;2.33;;
18576;SDS011;9418;52.694;13.294;2023-02-19T10:21:50;3.57;;;1.93;;
18576;SDS011;9418;52.694;13.294;2023-02-19T10:24:19;6.87;;;1.90;;
18576;SDS011;9418;52.694;13.294;2023-02-19T10:26:49;6.33;;;1.77;;
18576;SDS011;9418;52.694;13.294;2023-02-19T10:29:17;5.40;;;1.50;;
18576;SDS011;9418;52.694;13.294;2023-02-19T10:31:45;2.43;;;1.90;;
18576;SDS011;9418;52.694;13.294;2023-02-19T10:34:17;5.90;;;1.63;;
18576;SDS011;9418;52.694;13.294;2023-02-19T10:36:46;5.23;;;2.27;;
18576;SDS011;9418;52.694;13.294;2023-02-19T10:39:24;8.47;;;2.93;;
18576;SDS011;9418;52.694;13.294;2023-02-19T10:42:03;8.60;;;2.00;;
18576;SDS011;9418;52.694;13.294;2023-02-19T10:44:31;8.23;;;2.80;;
18576;SDS011;9418;52.694;13.294;2023-02-19T10:47:06;11.33;;;2.47;;
18576;SDS011;9418;52.694;13.294;2023-02-19T10:49:35;8.90;;;2.10;;
18576;SDS011;9418;52.694;13.294;2023-02-19T10:52:09;4.90;;;1.80;;
18576;SDS011;9418;52.694;13.294;2023-02-19T10:54:41;5.67;;;1.43;;
18576;SDS011;9418;52.694;13.294;2023-02-19T10:57:21;5.63;;;1.80;;
18576;SDS011;9418;52.694;13.294;2023-02-19T10:59:54;7.20;;;2.00;;
18576;SDS011;9418;52.694;13.294;2023-02-19T11:02:23;6.77;;;1.70;;
18576;SDS011;9418;52.694;13.294;2023-02-19T11:07:45;2.63;;;1.20;;
18576;SDS011;9418;52.694;13.294;2023-02-19T11:10:21;5.20;;;1.93;;
18576;SDS011;9418;52.694;13.294;2023-02-19T11:12:53;8.63;;;1.80;;
18576;SDS011;9418;52.694;13.294;2023-02-19T11:15:24;4.63;;;1.63;;
18576;SDS011;9418;52.694;13.294;2023-02-19T11:17:54;7.70;;;2.23;;
18576;SDS011;9418;52.694;13.294;2023-02-19T11:20:25;6.10;;;1.80;;
18576;SDS011;9418;52.694;13.294;2023-02-19T11:22:55;2.33;;;1.50;;
18576;SDS011;9418;52.694;13.294;2023-02-19T11:25:24;4.50;;;2.13;;
18576;SDS011;9418;52.694;13.294;2023-02-19T11:27:52;11.33;;;2.33;;
18576;SDS011;9418;52.694;13.294;2023-02-19T11:30:34;6.60;;;2.00;;
18576;SDS011;9418;52.694;13.294;2023-02-19T11:33:17;9.63;;;2.40;;
18576;SDS011;9418;52.694;13.294;2023-02-19T11:35:48;3.60;;;1.77;;
18576;SDS011;9418;52.694;13.294;2023-02-19T11:38:17;5.53;;;2.23;;
18576;SDS011;9418;52.694;13.294;2023-02-19T11:40:47;3.83;;;1.80;;
18576;SDS011;9418;52.694;13.294;2023-02-19T11:43:23;3.33;;;1.93;;
18576;SDS011;9418;52.694;13.294;2023-02-19T11:46:03;3.57;;;1.60;;
18576;SDS011;9418;52.694;13.294;2023-02-19T11:48:43;3.93;;;1.70;;
18576;SDS011;9418;52.694;13.294;2023-02-19T11:51:31;5.80;;;2.77;;
18576;SDS011;9418;52.694;13.294;2023-02-19T11:54:28;9.97;;;4.90;;
18576;SDS011;9418;52.694;13.294;2023-02-19T11:57:07;7.10;;;2.10;;
18576;SDS011;9418;52.694;13.294;2023-02-19T11:59:41;4.20;;;1.80;;
18576;SDS011;9418;52.694;13.294;2023-02-19T12:05:26;2.80;;;1.63;;
18576;SDS011;9418;52.694;13.294;2023-02-19T12:08:24;13.97;;;2.40;;
18576;SDS011;9418;52.694;13.294;2023-02-19T12:11:10;4.83;;;2.07;;
18576;SDS011;9418;52.694;13.294;2023-02-19T12:13:57;2.60;;;1.83;;
18576;SDS011;9418;52.694;13.294;2023-02-19T12:16:33;4.17;;;1.50;;
18576;SDS011;9418;52.694;13.294;2023-02-19T12:22:16;2.80;;;1.93;;
18576;SDS011;9418;52.694;13.294;2023-02-19T12:28:12;4.47;;;1.60;;
18576;SDS011;9418;52.694;13.294;2023-02-19T12:31:02;7.43;;;1.27;;
18576;SDS011;9418;52.694;13.294;2023-02-19T12:33:51;3.90;;;1.73;;
18576;SDS011;9418;52.694;13.294;2023-02-19T12:36:36;3.23;;;1.53;;
18576;SDS011;9418;52.694;13.294;2023-02-19T12:39:16;5.40;;;1.77;;
18576;SDS011;9418;52.694;13.294;2023-02-19T12:41:54;8.73;;;2.37;;
18576;SDS011;9418;52.694;13.294;2023-02-19T12:44:30;5.27;;;2.27;;
18576;SDS011;9418;52.694;13.294;2023-02-19T12:47:03;2.60;;;1.20;;
18576;SDS011;9418;52.694;13.294;2023-02-19T12:49:33;17.20;;;2.50;;
18576;SDS011;9418;52.694;13.294;2023-02-19T12:52:05;8.67;;;2.00;;
18576;SDS011;9418;52.694;13.294;2023-02-19T12:54:37;8.83;;;2.33;;
18576;SDS011;9418;52.694;13.294;2023-02-19T12:57:08;2.40;;;1.77;;
18576;SDS011;9418;52.694;13.294;2023-02-19T12:59:38;6.63;;;2.03;;
18576;SDS011;9418;52.694;13.294;2023-02-19T13:02:12;2.17;;;1.40;;
18576;SDS011;9418;52.694;13.294;2023-02-19T13:04:44;2.13;;;1.60;;
18576;SDS011;9418;52.694;13.294;2023-02-19T13:07:15;2.53;;;1.50;;
18576;SDS011;9418;52.694;13.294;2023-02-19T13:09:46;4.40;;;1.70;;
18576;SDS011;9418;52.694;13.294;2023-02-19T13:12:18;7.70;;;1.90;;
18576;SDS011;9418;52.694;13.294;2023-02-19T13:14:50;6.67;;;2.20;;
18576;SDS011;9418;52.694;13.294;2023-02-19T13:17:23;2.93;;;2.00;;
18576;SDS011;9418;52.694;13.294;2023-02-19T13:19:55;5.07;;;1.90;;
18576;SDS011;9418;52.694;13.294;2023-02-19T13:22:27;5.53;;;1.57;;
18576;SDS011;9418;52.694;13.294;2023-02-19T13:25:16;4.50;;;1.83;;
18576;SDS011;9418;52.694;13.294;2023-02-19T13:30:46;4.17;;;1.43;;
18576;SDS011;9418;52.694;13.294;2023-02-19T13:33:29;6.30;;;1.40;;
18576;SDS011;9418;52.694;13.294;2023-02-19T13:36:06;4.70;;;1.60;;
18576;SDS011;9418;52.694;13.294;2023-02-19T13:38:37;2.17;;;1.23;;
18576;SDS011;9418;52.694;13.294;2023-02-19T13:41:05;7.27;;;1.63;;
18576;SDS011;9418;52.694;13.294;2023-02-19T13:43:45;3.43;;;1.40;;
18576;SDS011;9418;52.694;13.294;2023-02-19T13:46:19;4.83;;;1.70;;
18576;SDS011;9418;52.694;13.294;2023-02-19T13:48:45;2.20;;;1.60;;
18576;SDS011;9418;52.694;13.294;2023-02-19T13:54:24;4.20;;;1.80;;
18576;SDS011;9418;52.694;13.294;2023-02-19T13:59:53;4.10;;;2.00;;
18576;SDS011;9418;52.694;13.294;2023-02-19T14:02:26;3.50;;;1.40;;
18576;SDS011;9418;52.694;13.294;2023-02-19T14:04:58;8.60;;;1.90;;
18576;SDS011;9418;52.694;13.294;2023-02-19T14:16:53;3.43;;;2.07;;
18576;SDS011;9418;52.694;13.294;2023-02-19T14:19:44;4.60;;;1.90;;
18576;SDS011;9418;52.694;13.294;2023-02-19T14:25:18;10.23;;;1.60;;
18576;SDS011;9418;52.694;13.294;2023-02-19T14:27:52;2.60;;;1.13;;
18576;SDS011;9418;52.694;13.294;2023-02-19T14:30:22;3.93;;;1.00;;
18576;SDS011;9418;52.694;13.294;2023-02-19T14:32:50;2.40;;;1.10;;
18576;SDS011;9418;52.694;13.294;2023-02-19T14:35:18;2.90;;;1.73;;
18576;SDS011;9418;52.694;13.294;2023-02-19T14:37:45;2.33;;;1.40;;
18576;SDS011;9418;52.694;13.294;2023-02-19T14:40:16;2.73;;;1.43;;
18576;SDS011;9418;52.694;13.294;2023-02-19T14:42:46;2.00;;;1.07;;
18576;SDS011;9418;52.694;13.294;2023-02-19T14:45:13;1.33;;;1.20;;
18576;SDS011;9418;52.694;13.294;2023-02-19T14:47:43;4.70;;;1.27;;
18576;SDS011;9418;52.694;13.294;2023-02-19T14:50:13;3.60;;;2.63;;
18576;SDS011;9418;52.694;13.294;2023-02-19T14:52:46;3.27;;;1.67;;
18576;SDS011;9418;52.694;13.294;2023-02-19T14:55:16;1.93;;;1.20;;
18576;SDS011;9418;52.694;13.294;2023-02-19T14:57:51;4.70;;;2.07;;
18576;SDS011;9418;52.694;13.294;2023-02-19T15:00:21;8.23;;;3.20;;
18576;SDS011;9418;52.694;13.294;2023-02-19T15:02:50;5.90;;;2.30;;
18576;SDS011;9418;52.694;13.294;2023-02-19T15:05:22;5.70;;;1.43;;
18576;SDS011;9418;52.694;13.294;2023-02-19T15:07:51;4.43;;;1.90;;
18576;SDS011;9418;52.694;13.294;2023-02-19T15:10:20;4.73;;;1.80;;
18576;SDS011;9418;52.694;13.294;2023-02-19T15:12:48;4.83;;;1.93;;
18576;SDS011;9418;52.694;13.294;2023-02-19T15:15:17;4.10;;;2.23;;
18576;SDS011;9418;52.694;13.294;2023-02-19T15:17:47;5.23;;;2.20;;
18576;SDS011;9418;52.694;13.294;2023-02-19T15:20:17;2.47;;;1.70;;
18576;SDS011;9418;52.694;13.294;2023-02-19T15:22:47;3.43;;;1.70;;
18576;SDS011;9418;52.694;13.294;2023-02-19T15:25:15;5.03;;;1.40;;
18576;SDS011;9418;52.694;13.294;2023-02-19T15:27:43;4.00;;;1.57;;
18576;SDS011;9418;52.694;13.294;2023-02-19T15:30:17;2.90;;;1.13;;
18576;SDS011;9418;52.694;13.294;2023-02-19T15:32:53;6.73;;;1.57;;
18576;SDS011;9418;52.694;13.294;2023-02-19T15:35:21;1.60;;;1.50;;
18576;SDS011;9418;52.694;13.294;2023-02-19T15:37:50;5.00;;;1.60;;
18576;SDS011;9418;52.694;13.294;2023-02-19T15:40:19;2.47;;;1.50;;
18576;SDS011;9418;52.694;13.294;2023-02-19T15:42:51;1.53;;;1.43;;
18576;SDS011;9418;52.694;13.294;2023-02-19T15:45:19;5.70;;;1.40;;